sensor_id;sensor_type;location;lat;lon;timestamp;P1;durP1;ratioP1;P2;durP2;ratioP2
51584;SDS011;37669;50.312;18.670;2022-10-20T05:20:30;133.50;;;74.85;;
51584;SDS011;37669;50.312;18.670;2022-10-20T05:22:57;115.90;;;71.25;;
51584;SDS011;37669;50.312;18.670;2022-10-20T05:25:24;111.68;;;67.82;;
51584;SDS011;37669;50.312;18.670;2022-10-20T05:27:51;108.15;;;70.18;;
51584;SDS011;37669;50.312;18.670;2022-10-20T05:30:18;100.80;;;67.03;;
51584;SDS011;37669;50.312;18.670;2022-10-20T05:32:45;108.22;;;65.53;;
51584;SDS011;37669;50.312;18.670;2022-10-20T05:35:12;107.05;;;67.57;;
51584;SDS011;37669;50.312;18.670;2022-10-20T05:37:41;109.30;;;66.60;;
51584;SDS011;37669;50.312;18.670;2022-10-20T05:40:09;108.03;;;68.88;;
51584;SDS011;37669;50.312;18.670;2022-10-20T05:42:36;114.30;;;69.60;;
51584;SDS011;37669;50.312;18.670;2022-10-20T05:45:04;115.90;;;71.78;;
51584;SDS011;37669;50.312;18.670;2022-10-20T05:47:32;121.15;;;71.80;;
51584;SDS011;37669;50.312;18.670;2022-10-20T05:49:59;128.00;;;78.95;;
51584;SDS011;37669;50.312;18.670;2022-10-20T05:52:26;144.27;;;88.82;;
51584;SDS011;37669;50.312;18.670;2022-10-20T05:54:54;160.15;;;92.00;;
51584;SDS011;37669;50.312;18.670;2022-10-20T05:57:22;137.88;;;89.05;;
51584;SDS011;37669;50.312;18.670;2022-10-20T05:59:49;138.07;;;90.53;;
51584;SDS011;37669;50.312;18.670;2022-10-20T06:02:16;141.43;;;86.80;;
51584;SDS011;37669;50.312;18.670;2022-10-20T06:04:43;131.68;;;83.40;;
51584;SDS011;37669;50.312;18.670;2022-10-20T06:07:10;131.60;;;85.55;;
51584;SDS011;37669;50.312;18.670;2022-10-20T06:09:37;128.57;;;81.75;;
51584;SDS011;37669;50.312;18.670;2022-10-20T06:12:07;140.35;;;87.68;;
51584;SDS011;37669;50.312;18.670;2022-10-20T06:14:34;137.90;;;85.25;;
51584;SDS011;37669;50.312;18.670;2022-10-20T06:17:01;138.68;;;84.88;;
51584;SDS011;37669;50.312;18.670;2022-10-20T06:19:28;141.57;;;91.07;;
51584;SDS011;37669;50.312;18.670;2022-10-20T06:21:55;153.30;;;92.75;;
51584;SDS011;37669;50.312;18.670;2022-10-20T06:24:23;142.80;;;89.82;;
51584;SDS011;37669;50.312;18.670;2022-10-20T06:26:50;158.07;;;95.82;;
51584;SDS011;37669;50.312;18.670;2022-10-20T06:29:18;153.43;;;95.65;;
51584;SDS011;37669;50.312;18.670;2022-10-20T06:31:46;145.40;;;99.28;;
51584;SDS011;37669;50.312;18.670;2022-10-20T06:34:14;150.30;;;100.65;;
51584;SDS011;37669;50.312;18.670;2022-10-20T06:36:43;145.80;;;101.03;;
51584;SDS011;37669;50.312;18.670;2022-10-20T06:39:11;139.73;;;96.15;;
51584;SDS011;37669;50.312;18.670;2022-10-20T06:41:39;149.75;;;94.20;;
51584;SDS011;37669;50.312;18.670;2022-10-20T06:44:07;143.40;;;91.25;;
51584;SDS011;37669;50.312;18.670;2022-10-20T06:46:35;141.30;;;89.35;;
51584;SDS011;37669;50.312;18.670;2022-10-20T06:49:03;130.40;;;86.63;;
51584;SDS011;37669;50.312;18.670;2022-10-20T06:51:32;130.55;;;85.60;;
51584;SDS011;37669;50.312;18.670;2022-10-20T06:54:00;132.98;;;84.22;;
51584;SDS011;37669;50.312;18.670;2022-10-20T06:56:28;124.28;;;79.78;;
51584;SDS011;37669;50.312;18.670;2022-10-20T06:58:56;125.47;;;79.65;;
51584;SDS011;37669;50.312;18.670;2022-10-20T07:01:25;130.23;;;79.13;;
51584;SDS011;37669;50.312;18.670;2022-10-20T07:03:55;120.57;;;77.53;;
51584;SDS011;37669;50.312;18.670;2022-10-20T07:06:24;124.10;;;77.38;;
51584;SDS011;37669;50.312;18.670;2022-10-20T07:08:52;119.70;;;76.88;;
51584;SDS011;37669;50.312;18.670;2022-10-20T07:11:22;119.00;;;75.53;;
51584;SDS011;37669;50.312;18.670;2022-10-20T07:13:50;120.18;;;75.88;;
51584;SDS011;37669;50.312;18.670;2022-10-20T07:16:18;111.90;;;76.63;;
51584;SDS011;37669;50.312;18.670;2022-10-20T07:22:24;112.30;;;71.65;;
51584;SDS011;37669;50.312;18.670;2022-10-20T07:24:51;97.78;;;68.20;;
51584;SDS011;37669;50.312;18.670;2022-10-20T07:27:18;98.72;;;63.88;;
51584;SDS011;37669;50.312;18.670;2022-10-20T07:29:45;88.03;;;59.35;;
51584;SDS011;37669;50.312;18.670;2022-10-20T07:32:12;86.47;;;58.95;;
51584;SDS011;37669;50.312;18.670;2022-10-20T07:34:39;80.82;;;52.80;;
51584;SDS011;37669;50.312;18.670;2022-10-20T07:37:07;71.68;;;50.17;;
51584;SDS011;37669;50.312;18.670;2022-10-20T07:46:15;95.20;;;43.63;;
51584;SDS011;37669;50.312;18.670;2022-10-20T07:48:42;62.53;;;39.28;;
51584;SDS011;37669;50.312;18.670;2022-10-20T07:51:12;77.15;;;40.67;;
51584;SDS011;37669;50.312;18.670;2022-10-20T07:53:41;68.55;;;40.08;;
51584;SDS011;37669;50.312;18.670;2022-10-20T07:56:08;51.78;;;31.85;;
51584;SDS011;37669;50.312;18.670;2022-10-20T07:58:35;51.90;;;34.17;;
51584;SDS011;37669;50.312;18.670;2022-10-20T08:01:03;47.42;;;30.73;;
51584;SDS011;37669;50.312;18.670;2022-10-20T08:03:32;55.10;;;33.72;;
51584;SDS011;37669;50.312;18.670;2022-10-20T08:05:59;53.28;;;32.08;;
51584;SDS011;37669;50.312;18.670;2022-10-20T08:08:27;48.25;;;32.05;;
51584;SDS011;37669;50.312;18.670;2022-10-20T08:10:54;52.58;;;34.78;;
51584;SDS011;37669;50.312;18.670;2022-10-20T08:13:22;53.95;;;28.90;;
51584;SDS011;37669;50.312;18.670;2022-10-20T08:15:49;59.08;;;35.85;;
51584;SDS011;37669;50.312;18.670;2022-10-20T08:18:16;53.95;;;32.63;;
51584;SDS011;37669;50.312;18.670;2022-10-20T08:20:45;50.33;;;31.58;;
51584;SDS011;37669;50.312;18.670;2022-10-20T08:23:12;47.70;;;31.00;;
51584;SDS011;37669;50.312;18.670;2022-10-20T08:25:40;36.58;;;25.05;;
51584;SDS011;37669;50.312;18.670;2022-10-20T08:28:07;38.25;;;26.40;;
51584;SDS011;37669;50.312;18.670;2022-10-20T08:30:34;37.95;;;26.17;;
51584;SDS011;37669;50.312;18.670;2022-10-20T08:33:02;41.67;;;27.10;;
51584;SDS011;37669;50.312;18.670;2022-10-20T08:35:29;35.42;;;25.75;;
51584;SDS011;37669;50.312;18.670;2022-10-20T08:37:58;38.40;;;25.35;;
51584;SDS011;37669;50.312;18.670;2022-10-20T08:40:25;34.72;;;22.63;;
51584;SDS011;37669;50.312;18.670;2022-10-20T08:42:55;31.73;;;22.42;;
51584;SDS011;37669;50.312;18.670;2022-10-20T08:45:24;35.22;;;21.88;;
51584;SDS011;37669;50.312;18.670;2022-10-20T08:47:52;36.75;;;23.88;;
51584;SDS011;37669;50.312;18.670;2022-10-20T08:50:22;34.42;;;21.10;;
51584;SDS011;37669;50.312;18.670;2022-10-20T08:52:53;29.15;;;21.30;;
51584;SDS011;37669;50.312;18.670;2022-10-20T08:55:25;35.08;;;22.08;;
51584;SDS011;37669;50.312;18.670;2022-10-20T08:57:55;30.75;;;21.08;;
51584;SDS011;37669;50.312;18.670;2022-10-20T09:00:26;37.53;;;22.77;;
51584;SDS011;37669;50.312;18.670;2022-10-20T09:02:55;34.28;;;22.60;;
51584;SDS011;37669;50.312;18.670;2022-10-20T09:05:28;27.48;;;20.17;;
51584;SDS011;37669;50.312;18.670;2022-10-20T09:07:58;26.02;;;17.77;;
51584;SDS011;37669;50.312;18.670;2022-10-20T09:10:30;27.90;;;17.60;;
51584;SDS011;37669;50.312;18.670;2022-10-20T09:13:00;32.55;;;18.55;;
51584;SDS011;37669;50.312;18.670;2022-10-20T09:15:31;31.55;;;17.75;;
51584;SDS011;37669;50.312;18.670;2022-10-20T09:18:00;22.90;;;16.00;;
51584;SDS011;37669;50.312;18.670;2022-10-20T09:20:31;19.95;;;14.60;;
51584;SDS011;37669;50.312;18.670;2022-10-20T09:23:01;21.25;;;13.38;;
51584;SDS011;37669;50.312;18.670;2022-10-20T09:25:30;17.77;;;11.52;;
51584;SDS011;37669;50.312;18.670;2022-10-20T09:27:58;23.30;;;11.10;;
51584;SDS011;37669;50.312;18.670;2022-10-20T09:30:30;19.52;;;12.18;;
51584;SDS011;37669;50.312;18.670;2022-10-20T09:32:59;16.13;;;9.52;;
51584;SDS011;37669;50.312;18.670;2022-10-20T09:35:45;15.18;;;8.15;;
51584;SDS011;37669;50.312;18.670;2022-10-20T09:38:15;13.85;;;7.68;;
51584;SDS011;37669;50.312;18.670;2022-10-20T09:40:55;11.43;;;6.88;;
51584;SDS011;37669;50.312;18.670;2022-10-20T09:43:24;14.32;;;7.20;;
51584;SDS011;37669;50.312;18.670;2022-10-20T09:45:53;12.73;;;7.95;;
51584;SDS011;37669;50.312;18.670;2022-10-20T09:48:23;10.60;;;6.13;;
51584;SDS011;37669;50.312;18.670;2022-10-20T09:50:53;11.82;;;5.93;;
51584;SDS011;37669;50.312;18.670;2022-10-20T09:53:23;6.85;;;4.72;;
51584;SDS011;37669;50.312;18.670;2022-10-20T09:55:54;9.85;;;5.10;;
51584;SDS011;37669;50.312;18.670;2022-10-20T09:58:23;11.40;;;5.00;;
51584;SDS011;37669;50.312;18.670;2022-10-20T10:00:54;9.57;;;6.35;;
51584;SDS011;37669;50.312;18.670;2022-10-20T10:03:23;12.60;;;6.32;;
51584;SDS011;37669;50.312;18.670;2022-10-20T10:05:54;16.05;;;7.20;;
51584;SDS011;37669;50.312;18.670;2022-10-20T10:08:23;13.05;;;6.85;;
51584;SDS011;37669;50.312;18.670;2022-10-20T10:10:57;12.38;;;7.40;;
51584;SDS011;37669;50.312;18.670;2022-10-20T10:13:27;21.83;;;8.27;;
51584;SDS011;37669;50.312;18.670;2022-10-20T10:16:03;13.77;;;7.28;;
51584;SDS011;37669;50.312;18.670;2022-10-20T10:18:33;12.85;;;6.88;;
51584;SDS011;37669;50.312;18.670;2022-10-20T10:21:02;10.25;;;6.13;;
51584;SDS011;37669;50.312;18.670;2022-10-20T10:23:32;13.27;;;7.13;;
51584;SDS011;37669;50.312;18.670;2022-10-20T10:26:32;14.73;;;7.47;;
51584;SDS011;37669;50.312;18.670;2022-10-20T10:29:14;13.50;;;7.28;;
51584;SDS011;37669;50.312;18.670;2022-10-20T10:31:45;17.35;;;7.47;;
51584;SDS011;37669;50.312;18.670;2022-10-20T10:34:31;11.60;;;7.88;;
51584;SDS011;37669;50.312;18.670;2022-10-20T10:37:07;19.67;;;7.43;;
51584;SDS011;37669;50.312;18.670;2022-10-20T10:39:37;14.20;;;8.38;;
51584;SDS011;37669;50.312;18.670;2022-10-20T10:45:12;19.63;;;8.70;;
51584;SDS011;37669;50.312;18.670;2022-10-20T10:53:25;23.95;;;7.80;;
51584;SDS011;37669;50.312;18.670;2022-10-20T10:56:02;37.95;;;8.73;;
51584;SDS011;37669;50.312;18.670;2022-10-20T10:58:40;14.70;;;7.70;;
51584;SDS011;37669;50.312;18.670;2022-10-20T11:01:28;13.50;;;7.88;;
51584;SDS011;37669;50.312;18.670;2022-10-20T11:04:23;16.70;;;8.70;;
51584;SDS011;37669;50.312;18.670;2022-10-20T11:07:07;18.52;;;7.60;;
51584;SDS011;37669;50.312;18.670;2022-10-20T11:09:48;14.25;;;8.30;;
51584;SDS011;37669;50.312;18.670;2022-10-20T11:12:31;12.93;;;8.05;;
51584;SDS011;37669;50.312;18.670;2022-10-20T11:15:12;19.73;;;7.90;;
51584;SDS011;37669;50.312;18.670;2022-10-20T11:17:53;14.10;;;7.57;;
51584;SDS011;37669;50.312;18.670;2022-10-20T11:20:28;13.98;;;8.30;;
51584;SDS011;37669;50.312;18.670;2022-10-20T11:23:11;19.85;;;8.73;;
51584;SDS011;37669;50.312;18.670;2022-10-20T11:25:51;15.45;;;8.77;;
51584;SDS011;37669;50.312;18.670;2022-10-20T11:28:28;15.20;;;8.23;;
51584;SDS011;37669;50.312;18.670;2022-10-20T11:31:08;19.48;;;7.20;;
51584;SDS011;37669;50.312;18.670;2022-10-20T11:33:46;9.85;;;7.40;;
51584;SDS011;37669;50.312;18.670;2022-10-20T11:36:19;17.92;;;7.65;;
51584;SDS011;37669;50.312;18.670;2022-10-20T11:38:50;11.48;;;6.72;;
51584;SDS011;37669;50.312;18.670;2022-10-20T11:41:21;8.48;;;6.13;;
51584;SDS011;37669;50.312;18.670;2022-10-20T11:43:54;13.50;;;7.18;;
51584;SDS011;37669;50.312;18.670;2022-10-20T11:46:27;15.82;;;7.35;;
51584;SDS011;37669;50.312;18.670;2022-10-20T11:49:00;12.05;;;7.97;;
51584;SDS011;37669;50.312;18.670;2022-10-20T11:54:34;10.20;;;6.82;;
51584;SDS011;37669;50.312;18.670;2022-10-20T11:57:16;18.92;;;7.15;;
51584;SDS011;37669;50.312;18.670;2022-10-20T12:06:14;22.10;;;6.40;;
51584;SDS011;37669;50.312;18.670;2022-10-20T12:09:13;8.50;;;6.03;;
51584;SDS011;37669;50.312;18.670;2022-10-20T12:12:04;12.32;;;7.57;;
51584;SDS011;37669;50.312;18.670;2022-10-20T12:14:36;17.42;;;6.43;;
51584;SDS011;37669;50.312;18.670;2022-10-20T12:17:19;9.52;;;5.72;;
51584;SDS011;37669;50.312;18.670;2022-10-20T12:19:53;14.45;;;5.72;;
51584;SDS011;37669;50.312;18.670;2022-10-20T12:23:00;10.85;;;6.13;;
51584;SDS011;37669;50.312;18.670;2022-10-20T12:25:38;24.60;;;13.40;;
51584;SDS011;37669;50.312;18.670;2022-10-20T12:30:59;29.95;;;11.63;;
51584;SDS011;37669;50.312;18.670;2022-10-20T12:33:34;13.10;;;6.90;;
51584;SDS011;37669;50.312;18.670;2022-10-20T12:36:12;10.95;;;6.40;;
51584;SDS011;37669;50.312;18.670;2022-10-20T12:38:50;14.18;;;5.57;;
51584;SDS011;37669;50.312;18.670;2022-10-20T12:41:23;8.68;;;6.00;;
51584;SDS011;37669;50.312;18.670;2022-10-20T12:43:53;12.82;;;6.07;;
51584;SDS011;37669;50.312;18.670;2022-10-20T12:46:26;10.45;;;6.05;;
51584;SDS011;37669;50.312;18.670;2022-10-20T12:48:56;15.98;;;7.60;;
51584;SDS011;37669;50.312;18.670;2022-10-20T12:51:31;20.50;;;9.23;;
51584;SDS011;37669;50.312;18.670;2022-10-20T12:54:03;13.38;;;7.97;;
51584;SDS011;37669;50.312;18.670;2022-10-20T12:56:40;15.73;;;8.25;;
51584;SDS011;37669;50.312;18.670;2022-10-20T13:05:38;15.77;;;8.40;;
51584;SDS011;37669;50.312;18.670;2022-10-20T13:13:58;17.77;;;7.55;;
51584;SDS011;37669;50.312;18.670;2022-10-20T13:16:39;13.77;;;7.53;;
51584;SDS011;37669;50.312;18.670;2022-10-20T13:19:12;18.17;;;6.70;;
51584;SDS011;37669;50.312;18.670;2022-10-20T13:21:42;18.55;;;8.80;;
51584;SDS011;37669;50.312;18.670;2022-10-20T13:24:11;14.00;;;6.15;;
51584;SDS011;37669;50.312;18.670;2022-10-20T13:26:50;18.25;;;7.22;;
51584;SDS011;37669;50.312;18.670;2022-10-20T13:29:23;11.45;;;5.72;;
51584;SDS011;37669;50.312;18.670;2022-10-20T13:32:00;12.32;;;4.85;;
51584;SDS011;37669;50.312;18.670;2022-10-20T13:34:40;19.85;;;4.40;;
51584;SDS011;37669;50.312;18.670;2022-10-20T13:37:29;13.02;;;3.80;;
51584;SDS011;37669;50.312;18.670;2022-10-20T13:40:19;11.35;;;4.72;;
51584;SDS011;37669;50.312;18.670;2022-10-20T13:42:55;17.40;;;5.35;;
51584;SDS011;37669;50.312;18.670;2022-10-20T13:45:41;13.55;;;6.40;;
51584;SDS011;37669;50.312;18.670;2022-10-20T13:48:22;22.83;;;9.25;;
51584;SDS011;37669;50.312;18.670;2022-10-20T13:51:01;15.05;;;6.85;;
51584;SDS011;37669;50.312;18.670;2022-10-20T13:53:31;8.45;;;4.80;;
51584;SDS011;37669;50.312;18.670;2022-10-20T13:56:05;11.07;;;4.75;;
51584;SDS011;37669;50.312;18.670;2022-10-20T13:58:34;15.88;;;5.45;;
51584;SDS011;37669;50.312;18.670;2022-10-20T14:01:03;27.15;;;5.20;;
51584;SDS011;37669;50.312;18.670;2022-10-20T14:03:34;12.52;;;5.20;;
51584;SDS011;37669;50.312;18.670;2022-10-20T14:08:55;5.38;;;4.18;;
51584;SDS011;37669;50.312;18.670;2022-10-20T14:11:24;11.00;;;4.75;;
51584;SDS011;37669;50.312;18.670;2022-10-20T14:13:54;8.68;;;4.20;;
51584;SDS011;37669;50.312;18.670;2022-10-20T14:16:25;7.45;;;4.30;;
51584;SDS011;37669;50.312;18.670;2022-10-20T14:19:00;7.45;;;4.10;;
51584;SDS011;37669;50.312;18.670;2022-10-20T14:21:37;10.05;;;4.90;;
51584;SDS011;37669;50.312;18.670;2022-10-20T14:24:05;18.45;;;4.88;;
51584;SDS011;37669;50.312;18.670;2022-10-20T14:26:41;6.55;;;4.72;;
51584;SDS011;37669;50.312;18.670;2022-10-20T14:29:09;8.32;;;4.55;;
51584;SDS011;37669;50.312;18.670;2022-10-20T14:31:41;8.50;;;4.85;;
51584;SDS011;37669;50.312;18.670;2022-10-20T14:34:16;9.18;;;3.80;;
51584;SDS011;37669;50.312;18.670;2022-10-20T14:36:46;16.67;;;4.15;;
51584;SDS011;37669;50.312;18.670;2022-10-20T14:39:27;8.85;;;3.50;;
51584;SDS011;37669;50.312;18.670;2022-10-20T14:41:59;9.02;;;4.00;;
51584;SDS011;37669;50.312;18.670;2022-10-20T14:44:29;7.32;;;3.80;;
51584;SDS011;37669;50.312;18.670;2022-10-20T14:46:58;9.13;;;4.00;;
51584;SDS011;37669;50.312;18.670;2022-10-20T14:49:31;9.00;;;4.45;;
51584;SDS011;37669;50.312;18.670;2022-10-20T14:52:03;7.90;;;5.88;;
51584;SDS011;37669;50.312;18.670;2022-10-20T14:54:32;9.43;;;5.38;;
51584;SDS011;37669;50.312;18.670;2022-10-20T14:57:01;13.55;;;5.60;;
51584;SDS011;37669;50.312;18.670;2022-10-20T15:02:58;16.20;;;4.95;;
51584;SDS011;37669;50.312;18.670;2022-10-20T15:05:31;9.68;;;5.35;;
51584;SDS011;37669;50.312;18.670;2022-10-20T15:08:09;13.90;;;6.53;;
51584;SDS011;37669;50.312;18.670;2022-10-20T15:10:46;9.05;;;5.20;;
51584;SDS011;37669;50.312;18.670;2022-10-20T15:13:20;20.88;;;6.70;;
51584;SDS011;37669;50.312;18.670;2022-10-20T15:15:49;12.27;;;6.63;;
51584;SDS011;37669;50.312;18.670;2022-10-20T15:18:18;15.90;;;9.13;;
51584;SDS011;37669;50.312;18.670;2022-10-20T15:20:47;28.80;;;13.82;;
51584;SDS011;37669;50.312;18.670;2022-10-20T15:23:15;26.67;;;14.30;;
51584;SDS011;37669;50.312;18.670;2022-10-20T15:25:48;21.50;;;10.57;;
51584;SDS011;37669;50.312;18.670;2022-10-20T15:28:22;19.65;;;10.85;;
51584;SDS011;37669;50.312;18.670;2022-10-20T15:30:54;19.63;;;9.98;;
51584;SDS011;37669;50.312;18.670;2022-10-20T15:33:23;25.77;;;10.68;;
51584;SDS011;37669;50.312;18.670;2022-10-20T15:35:50;26.55;;;11.70;;
51584;SDS011;37669;50.312;18.670;2022-10-20T15:38:17;35.08;;;12.13;;
51584;SDS011;37669;50.312;18.670;2022-10-20T15:40:45;27.35;;;14.13;;
51584;SDS011;37669;50.312;18.670;2022-10-20T15:43:12;25.98;;;13.77;;
51584;SDS011;37669;50.312;18.670;2022-10-20T15:45:42;26.90;;;14.93;;
51584;SDS011;37669;50.312;18.670;2022-10-20T15:48:11;39.80;;;16.23;;
51584;SDS011;37669;50.312;18.670;2022-10-20T15:50:39;28.08;;;15.95;;
51584;SDS011;37669;50.312;18.670;2022-10-20T15:53:08;35.80;;;17.90;;
51584;SDS011;37669;50.312;18.670;2022-10-20T15:55:37;46.28;;;25.17;;
51584;SDS011;37669;50.312;18.670;2022-10-20T15:58:06;42.15;;;20.65;;
51584;SDS011;37669;50.312;18.670;2022-10-20T16:00:34;32.25;;;18.02;;
51584;SDS011;37669;50.312;18.670;2022-10-20T16:03:01;64.45;;;41.33;;
51584;SDS011;37669;50.312;18.670;2022-10-20T16:05:28;35.58;;;17.17;;
51584;SDS011;37669;50.312;18.670;2022-10-20T16:07:57;28.92;;;17.60;;
51584;SDS011;37669;50.312;18.670;2022-10-20T16:10:25;44.33;;;22.50;;
51584;SDS011;37669;50.312;18.670;2022-10-20T16:12:54;53.30;;;23.60;;
51584;SDS011;37669;50.312;18.670;2022-10-20T16:15:22;44.42;;;21.65;;
51584;SDS011;37669;50.312;18.670;2022-10-20T16:17:49;37.88;;;19.98;;
51584;SDS011;37669;50.312;18.670;2022-10-20T16:20:16;34.97;;;21.10;;
51584;SDS011;37669;50.312;18.670;2022-10-20T16:22:44;43.92;;;22.75;;
51584;SDS011;37669;50.312;18.670;2022-10-20T16:25:12;31.90;;;20.10;;
51584;SDS011;37669;50.312;18.670;2022-10-20T16:27:39;55.15;;;29.52;;
51584;SDS011;37669;50.312;18.670;2022-10-20T16:30:07;59.05;;;33.63;;
51584;SDS011;37669;50.312;18.670;2022-10-20T16:32:35;46.65;;;24.50;;
51584;SDS011;37669;50.312;18.670;2022-10-20T16:35:02;42.53;;;22.08;;
51584;SDS011;37669;50.312;18.670;2022-10-20T16:37:31;59.00;;;21.85;;
51584;SDS011;37669;50.312;18.670;2022-10-20T16:39:58;37.45;;;20.58;;
51584;SDS011;37669;50.312;18.670;2022-10-20T16:42:27;40.92;;;20.38;;
51584;SDS011;37669;50.312;18.670;2022-10-20T16:44:55;43.78;;;21.75;;
51584;SDS011;37669;50.312;18.670;2022-10-20T16:47:23;43.28;;;23.73;;
51584;SDS011;37669;50.312;18.670;2022-10-20T16:49:50;47.67;;;27.05;;
51584;SDS011;37669;50.312;18.670;2022-10-20T16:52:17;38.80;;;23.73;;
51584;SDS011;37669;50.312;18.670;2022-10-20T16:54:44;56.22;;;23.17;;
51584;SDS011;37669;50.312;18.670;2022-10-20T16:57:11;48.05;;;27.52;;
51584;SDS011;37669;50.312;18.670;2022-10-20T16:59:40;52.58;;;30.13;;
51584;SDS011;37669;50.312;18.670;2022-10-20T17:02:09;58.67;;;30.50;;
51584;SDS011;37669;50.312;18.670;2022-10-20T17:51:49;42.28;;;22.73;;
51584;SDS011;37669;50.312;18.670;2022-10-20T17:54:16;48.97;;;24.77;;
51584;SDS011;37669;50.312;18.670;2022-10-20T17:56:44;44.08;;;23.90;;
51584;SDS011;37669;50.312;18.670;2022-10-20T17:59:12;48.92;;;22.50;;
51584;SDS011;37669;50.312;18.670;2022-10-20T18:01:39;39.50;;;21.42;;
51584;SDS011;37669;50.312;18.670;2022-10-20T18:04:07;35.42;;;21.88;;
51584;SDS011;37669;50.312;18.670;2022-10-20T18:06:35;44.50;;;21.83;;
51584;SDS011;37669;50.312;18.670;2022-10-20T18:09:04;38.75;;;22.98;;
51584;SDS011;37669;50.312;18.670;2022-10-20T18:11:35;47.97;;;24.70;;
51584;SDS011;37669;50.312;18.670;2022-10-20T18:14:03;47.63;;;26.13;;
51584;SDS011;37669;50.312;18.670;2022-10-20T18:16:31;47.30;;;26.23;;
51584;SDS011;37669;50.312;18.670;2022-10-20T18:18:59;51.60;;;26.80;;
51584;SDS011;37669;50.312;18.670;2022-10-20T18:21:27;48.88;;;25.63;;
51584;SDS011;37669;50.312;18.670;2022-10-20T18:23:56;43.97;;;26.30;;
51584;SDS011;37669;50.312;18.670;2022-10-20T18:26:28;41.05;;;24.70;;
51584;SDS011;37669;50.312;18.670;2022-10-20T18:28:56;44.53;;;25.92;;
51584;SDS011;37669;50.312;18.670;2022-10-20T18:31:25;40.97;;;25.88;;
51584;SDS011;37669;50.312;18.670;2022-10-20T18:33:55;47.17;;;25.20;;
51584;SDS011;37669;50.312;18.670;2022-10-20T18:36:24;42.72;;;25.13;;
51584;SDS011;37669;50.312;18.670;2022-10-20T18:38:52;43.00;;;23.40;;
51584;SDS011;37669;50.312;18.670;2022-10-20T18:41:21;38.83;;;22.65;;
51584;SDS011;37669;50.312;18.670;2022-10-20T18:43:51;42.80;;;23.33;;
51584;SDS011;37669;50.312;18.670;2022-10-20T18:46:19;46.40;;;24.77;;
51584;SDS011;37669;50.312;18.670;2022-10-20T18:48:47;39.67;;;23.42;;
51584;SDS011;37669;50.312;18.670;2022-10-20T18:51:14;44.55;;;24.08;;
51584;SDS011;37669;50.312;18.670;2022-10-20T18:53:43;43.67;;;24.63;;
51584;SDS011;37669;50.312;18.670;2022-10-20T18:56:12;52.03;;;26.63;;
51584;SDS011;37669;50.312;18.670;2022-10-20T18:58:41;46.85;;;26.15;;
51584;SDS011;37669;50.312;18.670;2022-10-20T19:01:14;48.13;;;26.98;;
51584;SDS011;37669;50.312;18.670;2022-10-20T19:03:43;53.08;;;27.55;;
51584;SDS011;37669;50.312;18.670;2022-10-20T19:06:13;47.28;;;27.90;;
51584;SDS011;37669;50.312;18.670;2022-10-20T19:08:41;51.22;;;30.10;;
51584;SDS011;37669;50.312;18.670;2022-10-20T19:11:09;47.17;;;30.35;;
51584;SDS011;37669;50.312;18.670;2022-10-20T19:13:38;46.25;;;29.27;;
51584;SDS011;37669;50.312;18.670;2022-10-20T19:16:06;50.03;;;30.60;;
51584;SDS011;37669;50.312;18.670;2022-10-20T19:18:36;50.28;;;31.25;;
51584;SDS011;37669;50.312;18.670;2022-10-20T19:21:04;50.55;;;31.65;;
51584;SDS011;37669;50.312;18.670;2022-10-20T19:23:33;58.10;;;34.40;;
51584;SDS011;37669;50.312;18.670;2022-10-20T19:26:03;68.10;;;36.33;;
51584;SDS011;37669;50.312;18.670;2022-10-20T19:28:34;65.25;;;39.03;;
51584;SDS011;37669;50.312;18.670;2022-10-20T19:31:05;63.53;;;37.45;;
51584;SDS011;37669;50.312;18.670;2022-10-20T19:33:39;67.45;;;38.90;;
51584;SDS011;37669;50.312;18.670;2022-10-20T19:36:06;72.93;;;39.45;;
51584;SDS011;37669;50.312;18.670;2022-10-20T19:38:33;72.88;;;38.67;;
51584;SDS011;37669;50.312;18.670;2022-10-20T19:41:00;70.20;;;40.15;;
51584;SDS011;37669;50.312;18.670;2022-10-20T19:43:28;72.88;;;40.05;;
51584;SDS011;37669;50.312;18.670;2022-10-20T19:45:55;65.68;;;40.90;;
51584;SDS011;37669;50.312;18.670;2022-10-20T19:48:23;64.90;;;39.00;;
51584;SDS011;37669;50.312;18.670;2022-10-20T19:50:52;64.07;;;39.33;;
51584;SDS011;37669;50.312;18.670;2022-10-20T19:53:19;64.68;;;38.55;;
51584;SDS011;37669;50.312;18.670;2022-10-20T19:55:46;67.20;;;39.50;;
51584;SDS011;37669;50.312;18.670;2022-10-20T19:58:14;73.88;;;41.20;;
51584;SDS011;37669;50.312;18.670;2022-10-20T20:00:42;67.65;;;41.30;;
51584;SDS011;37669;50.312;18.670;2022-10-20T20:03:10;73.60;;;42.08;;
51584;SDS011;37669;50.312;18.670;2022-10-20T20:05:37;69.30;;;41.30;;
51584;SDS011;37669;50.312;18.670;2022-10-20T20:08:06;65.25;;;40.97;;
51584;SDS011;37669;50.312;18.670;2022-10-20T20:10:33;64.88;;;41.38;;
51584;SDS011;37669;50.312;18.670;2022-10-20T20:13:01;69.95;;;42.08;;
51584;SDS011;37669;50.312;18.670;2022-10-20T20:15:29;67.25;;;40.17;;
51584;SDS011;37669;50.312;18.670;2022-10-20T20:17:56;78.22;;;41.30;;
51584;SDS011;37669;50.312;18.670;2022-10-20T20:20:23;64.97;;;39.63;;
51584;SDS011;37669;50.312;18.670;2022-10-20T20:22:50;65.60;;;40.83;;
51584;SDS011;37669;50.312;18.670;2022-10-20T20:25:19;62.20;;;41.00;;
51584;SDS011;37669;50.312;18.670;2022-10-20T20:27:46;68.78;;;39.97;;
51584;SDS011;37669;50.312;18.670;2022-10-20T20:30:13;66.13;;;41.75;;
51584;SDS011;37669;50.312;18.670;2022-10-20T20:32:40;69.32;;;41.67;;
51584;SDS011;37669;50.312;18.670;2022-10-20T20:35:07;72.35;;;42.53;;
51584;SDS011;37669;50.312;18.670;2022-10-20T20:37:35;69.07;;;46.72;;
51584;SDS011;37669;50.312;18.670;2022-10-20T20:40:02;72.57;;;45.38;;
51584;SDS011;37669;50.312;18.670;2022-10-20T20:42:31;83.05;;;49.75;;
51584;SDS011;37669;50.312;18.670;2022-10-20T20:44:59;68.57;;;47.78;;
51584;SDS011;37669;50.312;18.670;2022-10-20T20:47:29;75.97;;;47.40;;
51584;SDS011;37669;50.312;18.670;2022-10-20T20:49:56;87.43;;;51.42;;
51584;SDS011;37669;50.312;18.670;2022-10-20T20:52:24;84.30;;;52.83;;
51584;SDS011;37669;50.312;18.670;2022-10-20T20:54:52;77.53;;;51.85;;
51584;SDS011;37669;50.312;18.670;2022-10-20T20:57:19;87.10;;;50.55;;
51584;SDS011;37669;50.312;18.670;2022-10-20T20:59:48;73.47;;;51.45;;
51584;SDS011;37669;50.312;18.670;2022-10-20T21:02:15;77.72;;;51.47;;
51584;SDS011;37669;50.312;18.670;2022-10-20T21:04:43;77.38;;;53.42;;
51584;SDS011;37669;50.312;18.670;2022-10-20T21:07:10;85.38;;;57.90;;
51584;SDS011;37669;50.312;18.670;2022-10-20T21:09:37;85.95;;;54.65;;
51584;SDS011;37669;50.312;18.670;2022-10-20T21:12:04;81.45;;;53.08;;
51584;SDS011;37669;50.312;18.670;2022-10-20T21:14:31;80.93;;;51.83;;
51584;SDS011;37669;50.312;18.670;2022-10-20T21:17:00;74.47;;;50.75;;
51584;SDS011;37669;50.312;18.670;2022-10-20T21:19:27;85.15;;;50.33;;
51584;SDS011;37669;50.312;18.670;2022-10-20T21:21:54;72.47;;;50.15;;
51584;SDS011;37669;50.312;18.670;2022-10-20T21:24:22;77.55;;;50.33;;
